Time;durP1;ratioP1;P1;durP2;ratioP2;P2;SDS_P1;SDS_P2;PMS_P1;PMS_P2;Temp;Humidity;BMP_temperature;BMP_pressure;BME280_temperature;BME280_humidity;BME280_pressure;Samples;Min_cycle;Max_cycle;Signal;HPM_P1;HPM_P2
2021/04/23 00:01:41;;;;;;;;;;;19.10;49.40;;;;;;5049679;28;19927;-68
2021/04/23 00:04:06;;;;;;;;;;;19.10;49.40;;;;;;5049438;28;19924;-68
2021/04/23 00:06:33;;;;;;;;;;;19.10;49.40;;;;;;5048700;28;20295;-66
2021/04/23 00:09:07;;;;;;;;;;;19.00;49.30;;;;;;5048891;28;19919;-67
2021/04/23 00:11:34;;;;;;;;;;;19.00;49.30;;;;;;5048409;28;19982;-67
2021/04/23 00:13:59;;;;;;;;;;;19.00;49.40;;;;;;5046545;28;20008;-68
2021/04/23 00:16:25;;;;;;;;;;;19.10;49.30;;;;;;5047622;28;19991;-66
2021/04/23 00:18:51;;;;;;;;;;;19.10;49.30;;;;;;5047742;28;20444;-68
2021/04/23 00:21:20;;;;;;;;;;;19.00;49.30;;;;;;5048144;28;20799;-66
2021/04/23 00:23:46;;;;;;;;;;;19.00;49.20;;;;;;5048268;28;20679;-66
2021/04/23 00:26:11;;;;;;;;;;;19.00;49.30;;;;;;5047836;28;19916;-66
2021/04/23 00:28:36;;;;;;;;;;;19.00;49.20;;;;;;5048559;28;19916;-66
2021/04/23 00:31:03;;;;;;;;;;;19.00;49.20;;;;;;5030096;28;19921;-67
2021/04/23 00:33:28;;;;;;;;;;;19.00;49.20;;;;;;5047521;28;19917;-67
2021/04/23 00:35:54;;;;;;;;;;;19.00;49.10;;;;;;5048587;28;20417;-67
2021/04/23 00:38:21;;;;;;;;;;;19.00;49.20;;;;;;5047854;28;19947;-65
2021/04/23 00:40:51;;;;;;;;;;;19.00;49.20;;;;;;5030480;28;20294;-65
2021/04/23 00:43:17;;;;;;;;;;;19.00;49.10;;;;;;5047729;28;19932;-67
2021/04/23 00:45:42;;;;;;;;;;;19.00;49.10;;;;;;5031131;28;19917;-66
2021/04/23 00:48:08;;;;;;;;;;;19.00;49.10;;;;;;5056938;28;19960;-65
2021/04/23 00:50:37;;;;;;;;;;;19.00;49.10;;;;;;5055910;28;20386;-68
2021/04/23 00:53:03;;;;;;;;;;;19.00;49.10;;;;;;5048352;28;19925;-68
2021/04/23 00:55:28;;;;;;;;;;;19.00;49.10;;;;;;5048172;28;20545;-68
2021/04/23 00:57:54;;;;;;;;;;;19.00;49.00;;;;;;5048031;28;19952;-68
2021/04/23 01:00:19;;;;;;;;;;;18.90;49.00;;;;;;5030085;28;19924;-68
2021/04/23 01:02:45;;;;;;;;;;;19.00;49.00;;;;;;5047949;28;19932;-69
2021/04/23 01:05:11;;;;;;;;;;;19.00;49.00;;;;;;5048501;28;19917;-68
2021/04/23 01:07:41;;;;;;;;;;;19.00;49.00;;;;;;5048682;28;19923;-68
2021/04/23 01:10:07;;;;;;;;;;;19.00;49.00;;;;;;5048259;28;20003;-69
2021/04/23 01:12:32;;;;;;;;;;;19.00;49.00;;;;;;5048275;28;20011;-68
2021/04/23 01:14:57;;;;;;;;;;;18.90;48.90;;;;;;5049150;28;19917;-68
2021/04/23 01:17:23;;;;;;;;;;;18.90;48.90;;;;;;5049663;28;20425;-68
2021/04/23 01:19:48;;;;;;;;;;;19.00;48.90;;;;;;5051388;28;19944;-69
2021/04/23 01:22:14;;;;;;;;;;;18.90;48.80;;;;;;5047863;28;19917;-69
2021/04/23 01:24:39;;;;;;;;;;;18.90;48.80;;;;;;5048042;28;19916;-68
2021/04/23 01:27:05;;;;;;;;;;;18.90;48.80;;;;;;5047741;28;20715;-68
2021/04/23 01:29:30;;;;;;;;;;;18.90;48.80;;;;;;5047435;28;19940;-69
2021/04/23 01:31:56;;;;;;;;;;;18.90;48.80;;;;;;5046794;28;19996;-68
2021/04/23 01:34:23;;;;;;;;;;;18.90;48.80;;;;;;5047967;28;19924;-68
2021/04/23 01:36:49;;;;;;;;;;;18.90;48.80;;;;;;5047434;28;19924;-68
2021/04/23 01:39:15;;;;;;;;;;;18.90;48.80;;;;;;5047302;28;19925;-68
2021/04/23 01:41:40;;;;;;;;;;;18.80;48.60;;;;;;5047396;28;20383;-70
2021/04/23 01:44:06;;;;;;;;;;;18.90;48.70;;;;;;5047294;28;19917;-68
2021/04/23 01:46:33;;;;;;;;;;;18.90;48.70;;;;;;5047557;28;19920;-69
2021/04/23 01:49:00;;;;;;;;;;;18.80;48.70;;;;;;5047071;28;19982;-68
2021/04/23 01:51:25;;;;;;;;;;;18.80;48.60;;;;;;5047537;28;19921;-68
2021/04/23 01:53:51;;;;;;;;;;;18.80;48.60;;;;;;5047458;28;19967;-67
2021/04/23 01:56:16;;;;;;;;;;;18.80;48.60;;;;;;5047086;28;19931;-66
2021/04/23 01:58:42;;;;;;;;;;;18.80;48.70;;;;;;5047635;28;19917;-67
2021/04/23 02:01:07;;;;;;;;;;;18.80;48.60;;;;;;5048403;28;19929;-69
2021/04/23 02:03:33;;;;;;;;;;;18.80;48.60;;;;;;5048571;28;19924;-69
2021/04/23 02:05:58;;;;;;;;;;;18.80;48.60;;;;;;5047237;28;19917;-69
2021/04/23 02:08:24;;;;;;;;;;;18.80;48.60;;;;;;5046871;28;20756;-69
2021/04/23 02:10:51;;;;;;;;;;;18.80;48.60;;;;;;5046437;28;19925;-68
2021/04/23 02:13:20;;;;;;;;;;;18.80;48.50;;;;;;5046324;28;20407;-68
2021/04/23 02:15:45;;;;;;;;;;;18.80;48.60;;;;;;5046692;28;19920;-68
2021/04/23 02:18:11;;;;;;;;;;;18.80;48.50;;;;;;5046424;28;19970;-69
2021/04/23 02:20:36;;;;;;;;;;;18.80;48.50;;;;;;5046881;28;20008;-69
2021/04/23 02:23:03;;;;;;;;;;;18.80;48.50;;;;;;5045721;28;19920;-68
2021/04/23 02:25:30;;;;;;;;;;;18.80;48.50;;;;;;5046671;28;19917;-69
2021/04/23 02:27:55;;;;;;;;;;;18.70;48.40;;;;;;5046036;28;19927;-69
2021/04/23 02:30:22;;;;;;;;;;;18.80;48.50;;;;;;5046435;28;19920;-68
2021/04/23 02:32:47;;;;;;;;;;;18.70;48.40;;;;;;5045718;28;19931;-68
2021/04/23 02:35:19;;;;;;;;;;;18.70;48.40;;;;;;5046747;28;19917;-69
2021/04/23 02:37:44;;;;;;;;;;;18.70;48.40;;;;;;5046451;28;19971;-68
2021/04/23 02:40:10;;;;;;;;;;;18.70;48.40;;;;;;5047785;28;19925;-68
2021/04/23 02:42:36;;;;;;;;;;;18.70;48.40;;;;;;5046482;28;20346;-68
2021/04/23 02:45:03;;;;;;;;;;;18.70;48.40;;;;;;5046031;28;19921;-68
2021/04/23 02:47:28;;;;;;;;;;;18.70;48.40;;;;;;5045946;28;19917;-68
2021/04/23 02:49:54;;;;;;;;;;;18.70;48.40;;;;;;5045990;28;19927;-69
2021/04/23 02:52:19;;;;;;;;;;;18.70;48.40;;;;;;5045872;28;19917;-69
2021/04/23 02:54:46;;;;;;;;;;;18.70;49.10;;;;;;5045987;28;20466;-69
2021/04/23 02:57:13;;;;;;;;;;;18.70;48.40;;;;;;5045334;28;20062;-69
2021/04/23 02:59:40;;;;;;;;;;;18.70;48.50;;;;;;5028609;28;19917;-69
2021/04/23 03:02:05;;;;;;;;;;;18.70;48.40;;;;;;5046489;28;19917;-68
2021/04/23 03:04:31;;;;;;;;;;;18.70;48.50;;;;;;5046057;28;19947;-69
2021/04/23 03:06:56;;;;;;;;;;;18.70;48.40;;;;;;5045962;28;20407;-68
2021/04/23 03:09:22;;;;;;;;;;;18.60;48.40;;;;;;5044979;28;19925;-68
2021/04/23 03:11:47;;;;;;;;;;;18.60;48.40;;;;;;5045467;28;19924;-69
2021/04/23 03:14:13;;;;;;;;;;;18.60;48.40;;;;;;5045849;28;20004;-69
2021/04/23 03:16:39;;;;;;;;;;;18.70;48.40;;;;;;5046797;28;19920;-69
2021/04/23 03:19:09;;;;;;;;;;;18.60;48.30;;;;;;5045600;28;19921;-69
2021/04/23 03:21:34;;;;;;;;;;;18.60;48.40;;;;;;5038261;28;20375;-68
2021/04/23 03:24:00;;;;;;;;;;;18.60;48.40;;;;;;5045260;28;19939;-69
2021/04/23 03:26:26;;;;;;;;;;;18.60;48.40;;;;;;5045499;28;20303;-69
2021/04/23 03:28:51;;;;;;;;;;;18.60;48.40;;;;;;5045588;28;19917;-68
2021/04/23 03:31:17;;;;;;;;;;;18.60;48.40;;;;;;5027522;28;20306;-68
2021/04/23 03:33:42;;;;;;;;;;;18.60;48.50;;;;;;5043651;28;20293;-69
2021/04/23 03:36:10;;;;;;;;;;;18.60;48.40;;;;;;5045540;28;19975;-69
2021/04/23 03:38:37;;;;;;;;;;;18.60;48.50;;;;;;5046205;28;19921;-69
2021/04/23 03:41:03;;;;;;;;;;;18.50;48.40;;;;;;5045455;28;19917;-68
2021/04/23 03:43:28;;;;;;;;;;;18.60;48.40;;;;;;5045932;28;19940;-69
2021/04/23 03:45:54;;;;;;;;;;;18.50;48.40;;;;;;5046298;28;19933;-69
2021/04/23 03:48:19;;;;;;;;;;;18.60;48.40;;;;;;5057321;28;19978;-68
2021/04/23 03:50:45;;;;;;;;;;;18.50;48.40;;;;;;5052173;28;19921;-69
2021/04/23 03:53:11;;;;;;;;;;;18.50;48.40;;;;;;5045900;28;20299;-68
2021/04/23 03:55:41;;;;;;;;;;;18.50;48.40;;;;;;5047579;28;19917;-69
2021/04/23 03:58:06;;;;;;;;;;;18.50;48.50;;;;;;5049949;28;19917;-69
2021/04/23 04:00:42;;;;;;;;;;;18.50;48.50;;;;;;5029155;28;19985;-68
2021/04/23 04:03:07;;;;;;;;;;;18.50;48.50;;;;;;5045016;28;21894;-68
2021/04/23 04:05:33;;;;;;;;;;;18.50;48.50;;;;;;5045727;28;19947;-68
2021/04/23 04:07:58;;;;;;;;;;;18.50;48.50;;;;;;5045047;28;19924;-68
2021/04/23 04:10:24;;;;;;;;;;;18.50;48.50;;;;;;5044975;28;20418;-68
2021/04/23 04:12:49;;;;;;;;;;;18.50;48.50;;;;;;5045625;28;19916;-68
2021/04/23 04:15:15;;;;;;;;;;;18.50;48.50;;;;;;5045608;28;19921;-68
2021/04/23 04:17:40;;;;;;;;;;;18.50;48.50;;;;;;5046458;28;19923;-68
2021/04/23 04:20:06;;;;;;;;;;;18.50;48.60;;;;;;5045736;28;20015;-68
2021/04/23 04:22:32;;;;;;;;;;;18.50;48.60;;;;;;5046635;28;19931;-68
2021/04/23 04:24:57;;;;;;;;;;;18.50;48.50;;;;;;5046331;28;19917;-68
2021/04/23 04:27:23;;;;;;;;;;;18.50;48.50;;;;;;5046387;28;19943;-67
2021/04/23 04:29:48;;;;;;;;;;;18.50;48.60;;;;;;5045477;28;19923;-68
2021/04/23 04:32:15;;;;;;;;;;;18.50;48.70;;;;;;5043987;28;19928;-68
2021/04/23 04:34:40;;;;;;;;;;;18.50;49.00;;;;;;5047902;28;20366;-70
2021/04/23 04:37:06;;;;;;;;;;;18.50;49.00;;;;;;5049028;28;19927;-68
2021/04/23 04:39:31;;;;;;;;;;;18.40;49.00;;;;;;5030846;28;19932;-64
2021/04/23 04:41:57;;;;;;;;;;;18.40;49.10;;;;;;5048971;28;19920;-69
2021/04/23 04:44:22;;;;;;;;;;;18.40;49.20;;;;;;5049194;28;20423;-66
2021/04/23 04:46:48;;;;;;;;;;;18.40;49.30;;;;;;5049507;28;19927;-66
2021/04/23 04:49:13;;;;;;;;;;;18.40;49.40;;;;;;5048695;28;19927;-69
2021/04/23 04:51:38;;;;;;;;;;;18.40;49.60;;;;;;5048643;28;19921;-67
2021/04/23 04:54:04;;;;;;;;;;;18.40;49.70;;;;;;5047961;28;20534;-69
2021/04/23 04:56:30;;;;;;;;;;;18.40;49.70;;;;;;5045471;28;20012;-67
2021/04/23 04:58:55;;;;;;;;;;;18.40;50.40;;;;;;5044906;28;19936;-68
2021/04/23 05:01:21;;;;;;;;;;;18.40;50.80;;;;;;5027285;28;19917;-67
2021/04/23 05:03:46;;;;;;;;;;;18.30;51.00;;;;;;5045161;28;20241;-67
2021/04/23 05:06:12;;;;;;;;;;;18.30;51.20;;;;;;5027526;28;19921;-65
2021/04/23 05:08:38;;;;;;;;;;;18.30;52.10;;;;;;5045087;28;20540;-66
2021/04/23 05:11:03;;;;;;;;;;;18.20;51.60;;;;;;5045089;28;19921;-68
2021/04/23 05:13:29;;;;;;;;;;;18.20;51.80;;;;;;5027992;28;20410;-68
2021/04/23 05:15:54;;;;;;;;;;;18.20;51.90;;;;;;5045806;28;19967;-68
2021/04/23 05:18:20;;;;;;;;;;;18.20;52.10;;;;;;5044688;28;19921;-67
2021/04/23 05:20:46;;;;;;;;;;;18.20;52.10;;;;;;5045601;28;19917;-68
2021/04/23 05:23:11;;;;;;;;;;;18.20;52.30;;;;;;5046574;28;20381;-67
2021/04/23 05:25:37;;;;;;;;;;;18.20;52.40;;;;;;5053012;28;19917;-66
2021/04/23 05:28:02;;;;;;;;;;;18.20;52.40;;;;;;5051412;28;19928;-68
2021/04/23 05:30:28;;;;;;;;;;;18.20;52.40;;;;;;5039396;28;19920;-67
2021/04/23 05:32:54;;;;;;;;;;;18.20;52.40;;;;;;5049089;28;19959;-67
2021/04/23 05:35:19;;;;;;;;;;;18.20;52.40;;;;;;5035017;28;19982;-68
2021/04/23 05:37:45;;;;;;;;;;;18.20;52.30;;;;;;5023879;28;19924;-67
2021/04/23 05:40:11;;;;;;;;;;;18.20;52.40;;;;;;5007636;28;19913;-69
2021/04/23 05:42:37;;;;;;;;;;;18.30;52.70;;;;;;5025732;28;19995;-68
2021/04/23 05:45:03;;;;;;;;;;;18.30;52.80;;;;;;5025290;28;20414;-69
2021/04/23 05:47:29;;;;;;;;;;;18.30;52.80;;;;;;5024016;28;20277;-69
2021/04/23 05:49:54;;;;;;;;;;;18.30;52.70;;;;;;5025018;28;19927;-69
2021/04/23 05:52:19;;;;;;;;;;;18.30;52.60;;;;;;5025500;28;19974;-69
2021/04/23 05:54:45;;;;;;;;;;;18.30;52.40;;;;;;5025190;28;19913;-69
2021/04/23 05:57:10;;;;;;;;;;;18.30;52.10;;;;;;5026450;28;20380;-68
2021/04/23 05:59:36;;;;;;;;;;;18.40;52.10;;;;;;5024815;28;19917;-68
2021/04/23 06:02:01;;;;;;;;;;;18.40;51.90;;;;;;5028086;28;19927;-69
2021/04/23 06:04:27;;;;;;;;;;;18.40;51.70;;;;;;5024605;28;19913;-68
2021/04/23 06:06:52;;;;;;;;;;;18.40;51.70;;;;;;5025247;28;20273;-68
2021/04/23 06:09:18;;;;;;;;;;;18.40;51.50;;;;;;5025118;28;19952;-68
2021/04/23 06:11:43;;;;;;;;;;;18.40;51.40;;;;;;5024628;28;19917;-68
2021/04/23 06:14:09;;;;;;;;;;;18.50;51.30;;;;;;5025166;28;19914;-69
2021/04/23 06:16:34;;;;;;;;;;;18.50;51.20;;;;;;5025277;28;19913;-67
2021/04/23 06:19:00;;;;;;;;;;;18.50;51.10;;;;;;5024544;28;19920;-69
2021/04/23 06:21:25;;;;;;;;;;;18.50;51.00;;;;;;5006446;28;19998;-69
2021/04/23 06:23:51;;;;;;;;;;;18.50;50.90;;;;;;5024238;28;19913;-69
2021/04/23 06:26:17;;;;;;;;;;;18.50;50.80;;;;;;5024431;28;19913;-68
2021/04/23 06:28:44;;;;;;;;;;;18.50;50.70;;;;;;5024115;28;19944;-68
2021/04/23 06:31:11;;;;;;;;;;;18.50;50.60;;;;;;5024479;28;20002;-67
2021/04/23 06:33:40;;;;;;;;;;;18.50;50.50;;;;;;5024631;28;19913;-68
2021/04/23 06:36:06;;;;;;;;;;;18.50;50.50;;;;;;5024255;28;19921;-67
2021/04/23 06:38:31;;;;;;;;;;;18.50;50.40;;;;;;5024154;28;19959;-69
2021/04/23 06:40:57;;;;;;;;;;;18.60;50.50;;;;;;5024575;28;19963;-68
2021/04/23 06:43:22;;;;;;;;;;;18.60;50.50;;;;;;5023780;28;19917;-69
2021/04/23 06:45:50;;;;;;;;;;;18.60;50.40;;;;;;5024373;28;19917;-68
2021/04/23 06:48:15;;;;;;;;;;;18.60;50.40;;;;;;5023787;28;20555;-67
2021/04/23 06:50:41;;;;;;;;;;;18.60;50.30;;;;;;5024216;28;19924;-69
2021/04/23 06:53:06;;;;;;;;;;;18.60;50.40;;;;;;5024282;28;20335;-69
2021/04/23 06:55:31;;;;;;;;;;;18.60;50.40;;;;;;5029975;28;19957;-69
2021/04/23 06:57:57;;;;;;;;;;;18.60;50.60;;;;;;5044807;28;20186;-69
2021/04/23 07:00:26;;;;;;;;;;;18.60;50.50;;;;;;5043347;28;20007;-67
2021/04/23 07:02:52;;;;;;;;;;;18.60;50.50;;;;;;5044099;28;19917;-69
2021/04/23 07:05:18;;;;;;;;;;;18.60;50.50;;;;;;5043940;28;19917;-67
2021/04/23 07:07:43;;;;;;;;;;;18.60;50.40;;;;;;5027207;28;19924;-69
2021/04/23 07:10:09;;;;;;;;;;;18.60;50.40;;;;;;5046188;28;19916;-69
2021/04/23 07:12:35;;;;;;;;;;;18.60;50.30;;;;;;5048562;28;19913;-70
2021/04/23 07:15:00;;;;;;;;;;;18.60;50.00;;;;;;5047989;28;19923;-70
2021/04/23 07:17:26;;;;;;;;;;;18.60;49.90;;;;;;5045371;28;19916;-69
2021/04/23 07:19:51;;;;;;;;;;;18.60;49.90;;;;;;5043397;28;19917;-69
2021/04/23 07:22:17;;;;;;;;;;;18.60;49.90;;;;;;5044983;28;19916;-69
2021/04/23 07:24:43;;;;;;;;;;;18.60;49.80;;;;;;5044856;28;19970;-70
2021/04/23 07:27:08;;;;;;;;;;;18.60;49.80;;;;;;5045389;28;19919;-70
2021/04/23 07:29:34;;;;;;;;;;;18.60;49.80;;;;;;5043527;28;19913;-69
2021/04/23 07:31:59;;;;;;;;;;;18.60;49.80;;;;;;5043973;28;20484;-69
2021/04/23 07:34:24;;;;;;;;;;;18.60;49.70;;;;;;5043159;28;19913;-70
2021/04/23 07:36:50;;;;;;;;;;;18.60;49.70;;;;;;5043814;28;19944;-69
2021/04/23 07:39:15;;;;;;;;;;;18.60;49.80;;;;;;5042981;28;19971;-69
2021/04/23 07:41:41;;;;;;;;;;;18.60;49.70;;;;;;5043730;28;20634;-69
2021/04/23 07:44:06;;;;;;;;;;;18.60;49.70;;;;;;5042888;28;19940;-71
2021/04/23 07:46:32;;;;;;;;;;;18.60;50.30;;;;;;5042952;28;19913;-69
2021/04/23 07:48:58;;;;;;;;;;;18.60;49.70;;;;;;5042956;28;20314;-69
2021/04/23 07:51:23;;;;;;;;;;;18.60;49.70;;;;;;5042915;28;20677;-69
2021/04/23 07:53:48;;;;;;;;;;;18.60;49.70;;;;;;5043752;28;19922;-69
2021/04/23 07:56:14;;;;;;;;;;;18.60;49.70;;;;;;5044366;28;20383;-69
2021/04/23 07:58:39;;;;;;;;;;;18.60;49.60;;;;;;5044505;28;19913;-68
2021/04/23 08:01:05;;;;;;;;;;;18.50;49.60;;;;;;5042834;28;19920;-68
2021/04/23 08:03:31;;;;;;;;;;;18.50;49.60;;;;;;5043594;28;19966;-68
2021/04/23 08:05:57;;;;;;;;;;;18.50;49.70;;;;;;5043616;28;19995;-68
2021/04/23 08:08:22;;;;;;;;;;;18.50;49.60;;;;;;5043589;28;19927;-68
2021/04/23 08:10:47;;;;;;;;;;;18.50;49.70;;;;;;5047317;28;19960;-68
2021/04/23 08:13:13;;;;;;;;;;;18.50;49.70;;;;;;5046391;28;20314;-68
2021/04/23 08:15:39;;;;;;;;;;;18.50;49.70;;;;;;5047149;28;19913;-68
2021/04/23 08:18:04;;;;;;;;;;;18.50;49.70;;;;;;5047666;28;19913;-67
2021/04/23 08:20:30;;;;;;;;;;;18.50;49.70;;;;;;5047564;28;19917;-68
2021/04/23 08:22:55;;;;;;;;;;;18.50;49.70;;;;;;5047087;28;19939;-69
2021/04/23 08:25:21;;;;;;;;;;;18.50;49.70;;;;;;5046680;28;19913;-69
2021/04/23 08:27:46;;;;;;;;;;;18.50;49.70;;;;;;5047185;28;19916;-69
2021/04/23 08:30:12;;;;;;;;;;;18.50;49.70;;;;;;5045502;28;20015;-69
2021/04/23 08:32:37;;;;;;;;;;;18.50;49.80;;;;;;5046465;28;19920;-67
2021/04/23 08:35:04;;;;;;;;;;;18.40;50.00;;;;;;5046380;28;19921;-68
2021/04/23 08:37:29;;;;;;;;;;;18.40;50.30;;;;;;5046327;28;19913;-67
2021/04/23 08:39:55;;;;;;;;;;;18.40;50.50;;;;;;5046468;28;20661;-67
2021/04/23 08:42:21;;;;;;;;;;;18.40;50.60;;;;;;5046744;28;19962;-67
2021/04/23 08:44:46;;;;;;;;;;;18.40;50.70;;;;;;5046162;28;20269;-67
2021/04/23 08:47:13;;;;;;;;;;;18.40;50.80;;;;;;5047706;28;20315;-67
2021/04/23 08:49:39;;;;;;;;;;;18.40;50.90;;;;;;5027979;28;19913;-67
2021/04/23 08:52:04;;;;;;;;;;;18.40;50.90;;;;;;5028327;28;19921;-67
2021/04/23 08:54:30;;;;;;;;;;;18.40;50.80;;;;;;5045868;28;19921;-67
2021/04/23 08:56:55;;;;;;;;;;;18.40;50.70;;;;;;5046369;28;19913;-67
2021/04/23 08:59:21;;;;;;;;;;;18.40;50.70;;;;;;5045086;28;19917;-68
2021/04/23 09:01:46;;;;;;;;;;;18.40;50.60;;;;;;5045742;28;20475;-68
2021/04/23 09:04:12;;;;;;;;;;;18.40;50.50;;;;;;5046405;28;19924;-67
2021/04/23 09:06:38;;;;;;;;;;;18.40;50.50;;;;;;5045613;28;19952;-66
2021/04/23 09:09:04;;;;;;;;;;;18.40;50.40;;;;;;5046064;28;19963;-67
2021/04/23 09:11:35;;;;;;;;;;;18.40;50.40;;;;;;5046010;28;19966;-68
2021/04/23 09:14:01;;;;;;;;;;;18.40;50.30;;;;;;5045158;28;20291;-68
2021/04/23 09:16:46;;;;;;;;;;;18.40;50.20;;;;;;5011497;28;19913;-68
2021/04/23 09:19:20;;;;;;;;;;;18.40;50.20;;;;;;5045837;28;19917;-67
2021/04/23 09:21:48;;;;;;;;;;;18.40;50.20;;;;;;5026425;28;20458;-69
2021/04/23 09:24:17;;;;;;;;;;;18.40;50.20;;;;;;5046097;28;19939;-68
2021/04/23 09:26:43;;;;;;;;;;;18.40;50.20;;;;;;5045146;28;19913;-68
2021/04/23 09:29:20;;;;;;;;;;;18.40;50.10;;;;;;5045449;28;20557;-68
2021/04/23 09:31:45;;;;;;;;;;;18.40;50.10;;;;;;5045624;28;19932;-68
2021/04/23 09:34:11;;;;;;;;;;;18.40;50.00;;;;;;5043697;28;19913;-68
2021/04/23 09:36:44;;;;;;;;;;;18.40;50.20;;;;;;5045934;28;20443;-68
2021/04/23 09:39:10;;;;;;;;;;;18.40;50.00;;;;;;5047207;28;19913;-67
2021/04/23 09:41:35;;;;;;;;;;;18.40;50.00;;;;;;5048987;28;19913;-68
2021/04/23 09:44:01;;;;;;;;;;;18.40;50.00;;;;;;5048069;28;19963;-68
2021/04/23 09:46:36;;;;;;;;;;;18.40;50.10;;;;;;5051422;28;19913;-68
2021/04/23 09:49:14;;;;;;;;;;;18.40;50.00;;;;;;5048630;28;19977;-68
2021/04/23 09:51:40;;;;;;;;;;;18.30;50.00;;;;;;5048429;28;20379;-70
2021/04/23 09:54:12;;;;;;;;;;;18.40;49.90;;;;;;5032184;28;19917;-68
2021/04/23 09:56:38;;;;;;;;;;;18.30;49.90;;;;;;5045705;28;19952;-68
2021/04/23 09:59:16;;;;;;;;;;;18.40;50.00;;;;;;5044536;28;19964;-68
2021/04/23 10:02:01;;;;;;;;;;;18.30;49.90;;;;;;5044776;28;19924;-68
2021/04/23 10:04:28;;;;;;;;;;;18.30;50.00;;;;;;5027097;28;19919;-68
2021/04/23 10:07:12;;;;;;;;;;;18.30;50.00;;;;;;5044918;28;19913;-69
2021/04/23 10:09:48;;;;;;;;;;;18.30;49.90;;;;;;5044310;28;19917;-68
2021/04/23 10:12:32;;;;;;;;;;;18.30;50.00;;;;;;5044928;28;19955;-68
2021/04/23 10:15:06;;;;;;;;;;;18.30;49.90;;;;;;5043714;28;20012;-67
2021/04/23 10:17:31;;;;;;;;;;;18.30;49.90;;;;;;5044713;28;20438;-68
2021/04/23 10:19:57;;;;;;;;;;;18.30;49.90;;;;;;5041810;28;19928;-68
2021/04/23 10:22:23;;;;;;;;;;;18.30;49.90;;;;;;5042301;28;20417;-68
2021/04/23 10:24:49;;;;;;;;;;;18.30;49.90;;;;;;5043583;28;19995;-68
2021/04/23 10:27:15;;;;;;;;;;;18.30;49.90;;;;;;5043469;28;20030;-68
2021/04/23 10:29:40;;;;;;;;;;;18.30;49.90;;;;;;5044208;28;19913;-68
2021/04/23 10:32:06;;;;;;;;;;;18.30;49.90;;;;;;5026053;28;20391;-67
2021/04/23 10:34:34;;;;;;;;;;;18.30;49.90;;;;;;5026951;28;19917;-68
2021/04/23 10:37:00;;;;;;;;;;;18.30;49.90;;;;;;5044408;28;20395;-68
2021/04/23 10:39:25;;;;;;;;;;;18.30;49.90;;;;;;5044167;28;19913;-67
2021/04/23 10:41:51;;;;;;;;;;;18.30;50.00;;;;;;5026016;28;19913;-68
2021/04/23 10:44:19;;;;;;;;;;;18.30;50.00;;;;;;5044210;28;20712;-67
2021/04/23 10:46:51;;;;;;;;;;;18.30;50.70;;;;;;5044185;28;20646;-67
2021/04/23 10:49:16;;;;;;;;;;;18.30;50.00;;;;;;5043550;28;21404;-68
2021/04/23 10:51:42;;;;;;;;;;;18.30;50.00;;;;;;5043594;28;19920;-68
2021/04/23 10:54:15;;;;;;;;;;;18.30;49.90;;;;;;5044065;28;20331;-68
2021/04/23 10:56:50;;;;;;;;;;;18.30;49.90;;;;;;5043474;28;19913;-68
2021/04/23 10:59:24;;;;;;;;;;;18.30;50.00;;;;;;5044212;28;19913;-68
2021/04/23 11:01:51;;;;;;;;;;;18.30;49.90;;;;;;5025340;28;19963;-69
2021/04/23 11:04:17;;;;;;;;;;;18.40;49.90;;;;;;5043259;28;20447;-69
2021/04/23 11:06:43;;;;;;;;;;;18.30;49.90;;;;;;5044258;28;19995;-68
2021/04/23 11:09:09;;;;;;;;;;;18.30;50.00;;;;;;5009170;28;19917;-65
2021/04/23 11:11:38;;;;;;;;;;;18.30;50.00;;;;;;5024258;28;19917;-68
2021/04/23 11:14:22;;;;;;;;;;;18.30;50.40;;;;;;5024697;28;19921;-67
2021/04/23 11:16:47;;;;;;;;;;;18.30;50.90;;;;;;5024849;28;19952;-68
2021/04/23 11:19:22;;;;;;;;;;;18.30;51.20;;;;;;5024301;28;20786;-67
2021/04/23 11:21:47;;;;;;;;;;;18.30;51.50;;;;;;5024359;28;20000;-67
2021/04/23 11:24:17;;;;;;;;;;;18.30;51.70;;;;;;5027556;28;19996;-67
2021/04/23 11:26:52;;;;;;;;;;;18.30;51.80;;;;;;5042979;28;19962;-67
2021/04/23 11:29:18;;;;;;;;;;;18.20;51.90;;;;;;5043273;28;20628;-66
2021/04/23 11:32:02;;;;;;;;;;;18.30;52.00;;;;;;5042847;28;19920;-67
2021/04/23 11:34:28;;;;;;;;;;;18.30;51.90;;;;;;5043180;28;19919;-67
2021/04/23 11:37:00;;;;;;;;;;;18.30;51.90;;;;;;5044017;28;19913;-66
2021/04/23 11:39:32;;;;;;;;;;;18.30;51.90;;;;;;5042445;28;20351;-67
2021/04/23 11:42:07;;;;;;;;;;;18.30;51.90;;;;;;5043032;28;20004;-67
2021/04/23 11:44:40;;;;;;;;;;;18.30;51.90;;;;;;5045286;28;20276;-67
2021/04/23 11:47:05;;;;;;;;;;;18.30;51.90;;;;;;5047735;28;19921;-66
2021/04/23 11:49:30;;;;;;;;;;;18.30;51.80;;;;;;5029755;28;20404;-67
2021/04/23 11:52:00;;;;;;;;;;;18.30;51.70;;;;;;5029272;28;19952;-66
2021/04/23 11:54:30;;;;;;;;;;;18.30;51.70;;;;;;5047106;28;19947;-68
2021/04/23 11:56:55;;;;;;;;;;;18.30;51.70;;;;;;5047286;28;19967;-68
2021/04/23 11:59:20;;;;;;;;;;;18.30;51.70;;;;;;5047321;28;19912;-67
2021/04/23 12:01:46;;;;;;;;;;;18.30;51.70;;;;;;5047484;28;19991;-67
2021/04/23 12:04:11;;;;;;;;;;;18.30;51.70;;;;;;5046928;28;19913;-68
2021/04/23 12:06:37;;;;;;;;;;;18.30;51.70;;;;;;5047313;28;19924;-67
2021/04/23 12:09:14;;;;;;;;;;;18.30;51.60;;;;;;5048182;28;19913;-68
2021/04/23 12:11:39;;;;;;;;;;;18.30;51.60;;;;;;5048298;28;20598;-66
2021/04/23 12:14:05;;;;;;;;;;;18.30;51.60;;;;;;5047915;28;19919;-66
2021/04/23 12:16:30;;;;;;;;;;;18.30;51.70;;;;;;5049024;28;20268;-67
2021/04/23 12:18:56;;;;;;;;;;;18.30;51.90;;;;;;5049599;28;19916;-67
2021/04/23 12:21:22;;;;;;;;;;;18.30;52.10;;;;;;5048736;28;20375;-66
2021/04/23 12:23:49;;;;;;;;;;;18.30;52.20;;;;;;5047944;28;19943;-66
2021/04/23 12:26:14;;;;;;;;;;;18.30;52.20;;;;;;5049626;28;19913;-68
2021/04/23 12:28:47;;;;;;;;;;;18.30;51.90;;;;;;5048284;28;19913;-68
2021/04/23 12:31:18;;;;;;;;;;;18.30;51.70;;;;;;5050701;28;20367;-67
2021/04/23 12:33:53;;;;;;;;;;;18.30;51.70;;;;;;5051885;28;19919;-68
2021/04/23 12:36:22;;;;;;;;;;;18.30;51.80;;;;;;5047821;28;20329;-68
2021/04/23 12:38:49;;;;;;;;;;;18.30;51.90;;;;;;5047696;28;19921;-67
2021/04/23 12:41:19;;;;;;;;;;;18.20;51.90;;;;;;5049127;28;19913;-66
2021/04/23 12:43:44;;;;;;;;;;;18.20;52.00;;;;;;5048746;28;20554;-67
2021/04/23 12:46:20;;;;;;;;;;;18.20;52.10;;;;;;5048688;28;19944;-67
2021/04/23 12:48:52;;;;;;;;;;;18.20;52.10;;;;;;5051795;28;19913;-66
2021/04/23 12:51:18;;;;;;;;;;;18.30;52.30;;;;;;5048793;28;19924;-68
2021/04/23 12:53:43;;;;;;;;;;;18.20;52.30;;;;;;5028238;28;20429;-66
2021/04/23 12:56:09;;;;;;;;;;;18.20;52.40;;;;;;5028387;28;19928;-67
2021/04/23 12:58:37;;;;;;;;;;;18.20;52.50;;;;;;5046063;28;19917;-67
2021/04/23 13:01:02;;;;;;;;;;;18.20;52.60;;;;;;5046238;28;20347;-67
2021/04/23 13:03:28;;;;;;;;;;;18.30;52.40;;;;;;5046235;28;19962;-68
2021/04/23 13:05:53;;;;;;;;;;;18.30;52.80;;;;;;5028244;28;19913;-67
2021/04/23 13:08:19;;;;;;;;;;;18.30;51.80;;;;;;5045993;28;19913;-68
2021/04/23 13:10:45;;;;;;;;;;;18.30;51.60;;;;;;5045602;28;19917;-67
2021/04/23 13:13:11;;;;;;;;;;;18.30;51.50;;;;;;5045526;28;20000;-67
2021/04/23 13:15:37;;;;;;;;;;;18.30;51.40;;;;;;5046482;28;19917;-67
2021/04/23 13:18:22;;;;;;;;;;;18.30;51.50;;;;;;5046458;28;19959;-67
2021/04/23 13:20:52;;;;;;;;;;;18.20;51.50;;;;;;5042629;28;20418;-67
2021/04/23 13:23:28;;;;;;;;;;;18.20;51.70;;;;;;5046882;28;19921;-66
2021/04/23 13:25:53;;;;;;;;;;;18.20;51.80;;;;;;5046424;28;19999;-68
2021/04/23 13:28:19;;;;;;;;;;;18.20;51.70;;;;;;5046351;28;19917;-68
2021/04/23 13:30:50;;;;;;;;;;;18.30;51.70;;;;;;5046153;28;19928;-67
2021/04/23 13:33:23;;;;;;;;;;;18.20;52.00;;;;;;5045792;28;20472;-67
2021/04/23 13:35:50;;;;;;;;;;;18.20;52.10;;;;;;5046220;28;20046;-68
2021/04/23 13:38:32;;;;;;;;;;;18.20;52.10;;;;;;5046190;28;20419;-67
2021/04/23 13:41:10;;;;;;;;;;;18.20;52.10;;;;;;5046174;28;19913;-64
2021/04/23 13:43:36;;;;;;;;;;;18.20;52.20;;;;;;5046301;28;20363;-67
2021/04/23 13:46:02;;;;;;;;;;;18.20;52.30;;;;;;5046331;28;20438;-67
2021/04/23 13:48:28;;;;;;;;;;;18.20;52.30;;;;;;5047052;28;20018;-67
2021/04/23 13:50:54;;;;;;;;;;;18.30;52.30;;;;;;5045509;28;19924;-67
2021/04/23 13:53:20;;;;;;;;;;;18.30;52.40;;;;;;5046249;28;19913;-67
2021/04/23 13:56:02;;;;;;;;;;;18.30;52.50;;;;;;5046238;28;20440;-67
2021/04/23 13:58:27;;;;;;;;;;;18.30;52.50;;;;;;5018206;28;20890;-67
2021/04/23 14:00:54;;;;;;;;;;;18.30;52.50;;;;;;5045561;28;19962;-67
2021/04/23 14:03:19;;;;;;;;;;;18.30;52.60;;;;;;5045057;28;19944;-67
2021/04/23 14:05:45;;;;;;;;;;;18.30;52.60;;;;;;5044456;28;19912;-67
2021/04/23 14:08:10;;;;;;;;;;;18.30;52.60;;;;;;5044210;28;20011;-67
2021/04/23 14:10:36;;;;;;;;;;;18.30;52.60;;;;;;5044655;28;20642;-67
2021/04/23 14:13:02;;;;;;;;;;;18.20;52.60;;;;;;5045116;28;19967;-66
2021/04/23 14:15:27;;;;;;;;;;;18.30;52.60;;;;;;5027359;28;19920;-67